createdAt,value
2023-03-05T00:00:38.784Z,11.00
2023-03-05T00:05:59.983Z,10.19
2023-03-05T00:11:06.784Z,11.18
2023-03-05T00:16:14.472Z,14.30
2023-03-05T00:21:20.803Z,16.44
2023-03-05T00:26:25.773Z,10.07
2023-03-05T00:31:34.359Z,9.73
2023-03-05T00:36:40.627Z,13.46
2023-03-05T00:41:44.454Z,12.21
2023-03-05T00:46:50.199Z,15.05
2023-03-05T00:57:21.808Z,23.02
2023-03-05T01:02:29.012Z,16.04
2023-03-05T01:07:32.525Z,15.72
2023-03-05T01:12:38.146Z,15.79
2023-03-05T01:17:42.910Z,14.88
2023-03-05T01:22:46.348Z,14.59
2023-03-05T01:27:52.770Z,13.99
2023-03-05T01:32:59.990Z,13.80
2023-03-05T01:38:05.590Z,14.18
2023-03-05T01:43:23.247Z,15.55
2023-03-05T01:48:30.272Z,15.66
2023-03-05T01:53:34.141Z,16.17
2023-03-05T01:58:40.702Z,16.63
2023-03-05T02:03:46.489Z,15.05
2023-03-05T02:08:49.959Z,16.54
2023-03-05T02:13:53.795Z,15.99
2023-03-05T02:18:58.653Z,16.43
2023-03-05T02:24:07.069Z,16.44
2023-03-05T02:29:12.871Z,16.06
2023-03-05T02:34:20.986Z,16.43
2023-03-05T02:39:27.983Z,15.70
2023-03-05T02:44:31.741Z,16.41
2023-03-05T02:49:35.748Z,15.63
2023-03-05T02:54:43.768Z,15.63
2023-03-05T02:59:52.613Z,14.75
2023-03-05T03:04:56.325Z,14.50
2023-03-05T03:10:01.178Z,13.98
2023-03-05T03:15:08.427Z,15.05
2023-03-05T03:20:17.283Z,15.63
2023-03-05T03:25:26.801Z,15.73
2023-03-05T03:30:32.518Z,15.45
2023-03-05T03:35:36.033Z,14.98
2023-03-05T03:40:41.243Z,15.95
2023-03-05T03:45:47.111Z,15.60
2023-03-05T03:50:55.296Z,14.85
2023-03-05T03:56:02.512Z,15.71
2023-03-05T04:01:06.191Z,15.24
2023-03-05T04:06:12.482Z,17.61
2023-03-05T04:11:19.396Z,15.38
2023-03-05T04:16:23.237Z,15.29
2023-03-05T04:21:26.877Z,15.37
2023-03-05T04:26:34.210Z,16.63
2023-03-05T04:31:37.752Z,14.02
2023-03-05T04:36:41.277Z,13.49
2023-03-05T04:41:46.036Z,13.98
2023-03-05T04:46:49.661Z,14.39
2023-03-05T04:51:53.092Z,24.41
2023-03-05T04:57:00.067Z,15.46
2023-03-05T05:02:03.619Z,14.58
2023-03-05T05:07:08.262Z,14.32
2023-03-05T05:12:15.463Z,16.26
2023-03-05T05:17:21.371Z,18.11
2023-03-05T05:22:24.871Z,14.19
2023-03-05T05:27:29.801Z,15.77
2023-03-05T05:32:33.411Z,14.25
2023-03-05T05:37:36.996Z,14.42
2023-03-05T05:42:46.511Z,12.62
2023-03-05T05:47:55.356Z,17.73
2023-03-05T05:52:58.794Z,13.21
2023-03-05T05:58:03.611Z,13.07
2023-03-05T06:03:07.918Z,12.55
2023-03-05T06:08:11.517Z,11.79
2023-03-05T06:13:16.351Z,12.16
2023-03-05T06:18:19.801Z,13.11
2023-03-05T06:23:23.389Z,14.17
2023-03-05T06:28:28.523Z,13.34
2023-03-05T06:33:34.889Z,13.02
2023-03-05T06:38:41.602Z,17.10
2023-03-05T06:43:47.889Z,14.50
2023-03-05T06:48:52.131Z,13.70
2023-03-05T06:53:57.372Z,14.73
2023-03-05T06:59:05.232Z,13.42
2023-03-05T07:04:09.054Z,14.11
2023-03-05T07:09:15.956Z,13.85
2023-03-05T07:14:20.726Z,9.90
2023-03-05T07:19:24.118Z,11.77
2023-03-05T07:24:29.980Z,12.53
2023-03-05T07:29:37.375Z,12.37
2023-03-05T07:34:45.544Z,12.32
2023-03-05T07:39:49.111Z,13.53
2023-03-05T07:44:54.005Z,13.14
2023-03-05T07:49:59.893Z,13.17
2023-03-05T07:55:06.305Z,12.27
2023-03-05T08:00:16.626Z,13.21
2023-03-05T08:05:20.280Z,13.58
2023-03-05T08:10:26.578Z,13.41
2023-03-05T08:15:31.734Z,13.28
2023-03-05T08:20:36.481Z,12.97
2023-03-05T08:25:40.250Z,13.99
2023-03-05T08:30:48.274Z,13.31
2023-03-05T08:35:51.900Z,13.96
2023-03-05T08:40:57.789Z,14.52
2023-03-05T08:46:05.222Z,14.64
2023-03-05T08:51:09.385Z,14.46
2023-03-05T08:56:15.528Z,15.13
2023-03-05T09:01:24.068Z,15.68
2023-03-05T09:06:28.578Z,16.11
2023-03-05T09:11:36.057Z,16.87
2023-03-05T09:16:43.164Z,16.07
2023-03-05T09:21:49.076Z,17.44
2023-03-05T09:26:52.688Z,26.05
2023-03-05T09:32:02.981Z,17.64
2023-03-05T09:37:06.613Z,21.49
2023-03-05T09:42:30.282Z,19.11
2023-03-05T09:47:46.340Z,20.73
2023-03-05T09:52:51.624Z,24.41
2023-03-05T09:58:04.087Z,19.15
2023-03-05T10:03:17.646Z,1205.87
2023-03-05T10:08:24.236Z,4892.93
2023-03-05T10:13:31.445Z,6458.00
2023-03-05T10:18:43.460Z,3979.05
2023-03-05T10:24:01.667Z,4962.67
2023-03-05T10:29:16.514Z,5557.73
2023-03-05T10:34:45.090Z,2751.20
2023-03-05T10:39:58.905Z,975.13
2023-03-05T10:45:07.079Z,73.19
2023-03-05T10:50:17.082Z,122.97
2023-03-05T10:55:23.675Z,225.78
2023-03-05T11:00:30.372Z,510.47
2023-03-05T11:05:46.381Z,502.33
2023-03-05T11:11:04.076Z,391.07
2023-03-05T11:16:19.933Z,66.90
2023-03-05T11:21:27.967Z,347.63
2023-03-05T11:26:31.812Z,2163.57
2023-03-05T11:31:35.637Z,6533.39
2023-03-05T11:36:44.408Z,9734.65
2023-03-05T11:41:52.537Z,9975.38
2023-03-05T11:47:05.114Z,10243.10
2023-03-05T11:52:15.363Z,14076.30
2023-03-05T11:57:24.104Z,13878.45
2023-03-05T12:02:29.259Z,14213.12
2023-03-05T12:07:36.860Z,14639.41
2023-03-05T12:12:49.564Z,14558.13
2023-03-05T12:18:03.157Z,14299.94
2023-03-05T12:23:14.276Z,14442.55
2023-03-05T12:28:18.936Z,14464.80
2023-03-05T12:33:33.653Z,14561.67
2023-03-05T12:38:39.322Z,14510.78
2023-03-05T12:43:43.339Z,14475.18
2023-03-05T12:48:46.945Z,14568.91
2023-03-05T12:53:54.297Z,14664.57
2023-03-05T12:59:01.200Z,14869.09
2023-03-05T13:04:10.850Z,14970.28
2023-03-05T13:09:19.486Z,14997.09
2023-03-05T13:14:35.942Z,14678.67
2023-03-05T13:19:43.024Z,14643.10
2023-03-05T13:24:49.929Z,14478.14
2023-03-05T13:29:55.147Z,14376.48
2023-03-05T13:35:01.878Z,14276.90
2023-03-05T13:40:19.999Z,14251.59
2023-03-05T13:45:26.166Z,14291.68
2023-03-05T13:50:34.172Z,14170.17
2023-03-05T13:55:39.906Z,14120.13
2023-03-05T14:00:43.797Z,13938.69
2023-03-05T14:05:47.565Z,14098.83
2023-03-05T14:10:55.711Z,14039.16
2023-03-05T14:16:06.364Z,13910.29
2023-03-05T14:21:11.296Z,13802.54
2023-03-05T14:26:29.495Z,13779.06
2023-03-05T14:31:38.082Z,13660.87
2023-03-05T14:36:48.648Z,13626.24
2023-03-05T14:41:56.535Z,14186.37
2023-03-05T14:47:02.391Z,14261.98
2023-03-05T14:52:06.782Z,14124.15
2023-03-05T14:57:16.785Z,14173.24
2023-03-05T15:02:25.185Z,14057.42
2023-03-05T15:07:31.946Z,14000.52
2023-03-05T15:12:39.035Z,13919.68
2023-03-05T15:17:44.122Z,13727.96
2023-03-05T15:22:47.723Z,13574.51
2023-03-05T15:27:52.540Z,13639.45
2023-03-05T15:32:57.576Z,13672.78
2023-03-05T15:38:03.589Z,13746.00
2023-03-05T15:43:08.379Z,13808.98
2023-03-05T15:48:16.733Z,13551.17
2023-03-05T15:53:21.615Z,13554.73
2023-03-05T15:58:26.444Z,13654.39
2023-03-05T16:03:29.881Z,13298.38
2023-03-05T16:08:36.269Z,13390.00
2023-03-05T16:13:43.168Z,13702.76
2023-03-05T16:18:48.490Z,13754.72
2023-03-05T16:23:51.916Z,13549.49
2023-03-05T16:28:56.789Z,13508.48
2023-03-05T16:34:05.337Z,13530.15
2023-03-05T16:39:08.857Z,13471.85
2023-03-05T16:44:14.099Z,13443.73
2023-03-05T16:49:20.229Z,13360.54
2023-03-05T16:54:23.695Z,13322.51
2023-03-05T16:59:28.722Z,12651.70
2023-03-05T17:04:32.624Z,13152.44
2023-03-05T17:09:38.530Z,12979.17
2023-03-05T17:14:43.389Z,13070.05
2023-03-05T17:19:46.893Z,13060.92
2023-03-05T17:24:51.001Z,13112.74
2023-03-05T17:29:56.083Z,13048.82
2023-03-05T17:34:59.494Z,13066.58
2023-03-05T17:40:05.566Z,13078.88
2023-03-05T17:45:10.872Z,13108.21
2023-03-05T17:50:15.320Z,13129.04
2023-03-05T17:55:18.822Z,13181.47
2023-03-05T18:00:24.454Z,13254.83
2023-03-05T18:05:28.546Z,13204.17
2023-03-05T18:10:33.118Z,13245.47
2023-03-05T18:15:41.753Z,13271.29
2023-03-05T18:20:48.786Z,13275.20
2023-03-05T18:25:52.309Z,13272.23
2023-03-05T18:30:57.117Z,13284.75
2023-03-05T18:36:00.841Z,13292.82
2023-03-05T18:41:04.715Z,13364.44
2023-03-05T18:46:11.951Z,13531.78
2023-03-05T18:51:17.174Z,13489.41
2023-03-05T18:56:20.549Z,13554.36
2023-03-05T19:01:25.351Z,13472.19
2023-03-05T19:06:28.917Z,13420.22
2023-03-05T19:11:32.494Z,13082.99
2023-03-05T19:16:43.505Z,13208.71
2023-03-05T19:21:48.857Z,13319.04
2023-03-05T19:26:55.420Z,13300.28
2023-03-05T19:32:00.399Z,13199.65
2023-03-05T19:37:04.105Z,13057.17
2023-03-05T19:42:08.176Z,12919.04
2023-03-05T19:47:15.107Z,12776.27
2023-03-05T19:52:21.578Z,12831.58
2023-03-05T19:57:25.049Z,12829.94
2023-03-05T20:02:29.874Z,12834.62
2023-03-05T20:07:33.392Z,12728.90
2023-03-05T20:12:39.266Z,12796.08
2023-03-05T20:17:45.844Z,12846.25
2023-03-05T20:22:49.278Z,12789.68
2023-03-05T20:27:53.108Z,12785.81
2023-03-05T20:32:58.042Z,12861.40
2023-03-05T20:38:20.682Z,12841.90
2023-03-05T20:43:28.026Z,12855.55
2023-03-05T20:48:34.532Z,12878.78
2023-03-05T20:53:37.950Z,12687.64
2023-03-05T20:58:41.403Z,12732.57
2023-03-05T21:03:48.638Z,12799.87
2023-03-05T21:08:54.467Z,12793.06
2023-03-05T21:13:58.133Z,12659.75
2023-03-05T21:19:05.081Z,12822.47
2023-03-05T21:24:08.842Z,12591.14
2023-03-05T21:29:14.760Z,12286.85
2023-03-05T21:34:21.680Z,10597.38
2023-03-05T21:39:25.115Z,5007.33
2023-03-05T21:44:28.576Z,1921.79
2023-03-05T21:49:33.545Z,1490.71
2023-03-05T21:54:37.341Z,6402.52
2023-03-05T21:59:41.774Z,12451.24
2023-03-05T22:04:47.605Z,12741.08
2023-03-05T22:09:55.398Z,12810.80
2023-03-05T22:14:59.031Z,12789.28
2023-03-05T22:20:04.004Z,12799.97
2023-03-05T22:25:10.174Z,12794.89
2023-03-05T22:30:14.183Z,12708.35
2023-03-05T22:35:19.215Z,12634.53
2023-03-05T22:40:23.708Z,12196.87
2023-03-05T22:45:29.634Z,12333.14
2023-03-05T22:50:34.445Z,12294.21
2023-03-05T22:55:39.172Z,12584.40
2023-03-05T23:00:42.757Z,12623.67
2023-03-05T23:05:47.575Z,12647.25
2023-03-05T23:10:53.092Z,12638.44
2023-03-05T23:15:56.652Z,12684.54
2023-03-05T23:21:03.820Z,12682.49
2023-03-05T23:26:09.624Z,12621.66
2023-03-05T23:31:13.060Z,12682.13
2023-03-05T23:36:19.962Z,12711.20
2023-03-05T23:41:26.381Z,12799.95
2023-03-05T23:46:30.686Z,12807.19
2023-03-05T23:51:35.456Z,12820.43
2023-03-05T23:56:41.029Z,12807.07
